createdAt,value
2022-10-13T00:02:26.302Z,92.84
2022-10-13T00:05:29.138Z,92.87
2022-10-13T00:08:31.885Z,92.77
2022-10-13T00:11:34.681Z,92.74
2022-10-13T00:14:37.596Z,92.92
2022-10-13T00:17:41.838Z,92.36
2022-10-13T00:20:47.118Z,92.13
2022-10-13T00:23:50.231Z,92.61
2022-10-13T00:26:53.607Z,92.54
2022-10-13T00:29:56.854Z,92.11
2022-10-13T00:33:00.945Z,92.56
2022-10-13T00:36:07.145Z,92.56
2022-10-13T00:39:10.071Z,92.31
2022-10-13T00:42:13.975Z,92.31
2022-10-13T00:45:23.853Z,92.12
2022-10-13T00:48:30.347Z,92.28
2022-10-13T00:51:35.943Z,91.92
2022-10-13T00:54:38.963Z,92.01
2022-10-13T00:57:46.174Z,92.57
2022-10-13T01:00:51.779Z,92.23
2022-10-13T01:03:55.901Z,92.35
2022-10-13T01:06:59.224Z,92.01
2022-10-13T01:10:03.070Z,91.93
2022-10-13T01:13:14.737Z,92.25
2022-10-13T01:16:28.170Z,91.96
2022-10-13T01:20:05.140Z,92.22
2022-10-13T01:23:34.509Z,92.26
2022-10-13T01:26:56.719Z,92.53
2022-10-13T01:30:15.691Z,92.44
2022-10-13T01:33:28.058Z,92.74
2022-10-13T01:36:38.053Z,92.49
2022-10-13T01:39:46.071Z,92.82
2022-10-13T01:42:55.115Z,92.86
2022-10-13T01:46:05.595Z,92.57
2022-10-13T01:49:11.425Z,92.63
2022-10-13T01:52:19.457Z,92.32
2022-10-13T01:55:22.554Z,92.39
2022-10-13T01:58:29.115Z,92.49
2022-10-13T02:01:47.822Z,92.72
2022-10-13T02:05:02.157Z,93.08
2022-10-13T02:08:10.698Z,93.15
2022-10-13T02:11:16.787Z,93.15
2022-10-13T02:14:23.492Z,93.07
2022-10-13T02:17:29.179Z,93.56
2022-10-13T02:20:33.095Z,93.18
2022-10-13T02:23:36.908Z,93.16
2022-10-13T02:26:41.981Z,93.08
2022-10-13T02:29:53.205Z,93.33
2022-10-13T02:32:57.467Z,93.52
2022-10-13T02:36:00.220Z,93.16
2022-10-13T02:39:03.308Z,93.18
2022-10-13T02:42:06.777Z,93.36
2022-10-13T02:45:11.046Z,93.24
2022-10-13T02:48:15.934Z,92.84
2022-10-13T02:51:19.231Z,93.06
2022-10-13T02:54:21.929Z,92.83
2022-10-13T02:57:24.700Z,93.47
2022-10-13T03:00:27.636Z,93.39
2022-10-13T03:03:32.099Z,93.24
2022-10-13T03:06:35.553Z,93.62
2022-10-13T03:09:38.702Z,93.14
2022-10-13T03:12:41.407Z,92.89
2022-10-13T03:15:44.543Z,92.94
2022-10-13T03:18:48.600Z,93.30
2022-10-13T03:21:51.337Z,93.48
2022-10-13T03:24:54.502Z,93.64
2022-10-13T03:27:57.698Z,93.68
2022-10-13T03:31:05.519Z,93.42
2022-10-13T03:34:10.114Z,93.54
2022-10-13T03:37:12.819Z,93.39
2022-10-13T03:40:15.937Z,93.72
2022-10-13T03:43:18.639Z,93.49
2022-10-13T03:46:22.272Z,93.72
2022-10-13T03:49:26.627Z,93.93
2022-10-13T03:52:29.673Z,93.51
2022-10-13T03:55:32.384Z,93.90
2022-10-13T03:58:36.425Z,93.79
2022-10-13T04:01:40.230Z,93.81
2022-10-13T04:04:44.719Z,93.37
2022-10-13T04:07:47.524Z,93.56
2022-10-13T04:10:50.244Z,92.92
2022-10-13T04:13:53.454Z,93.19
2022-10-13T04:16:56.816Z,93.31
2022-10-13T04:20:01.855Z,93.16
2022-10-13T04:23:04.538Z,93.09
2022-10-13T04:26:08.276Z,92.97
2022-10-13T04:29:12.809Z,93.22
2022-10-13T04:32:15.985Z,92.95
2022-10-13T04:35:20.086Z,93.02
2022-10-13T04:38:23.204Z,93.04
2022-10-13T04:41:26.097Z,93.13
2022-10-13T04:44:29.583Z,92.82
2022-10-13T04:47:36.751Z,92.50
2022-10-13T04:50:41.571Z,92.74
2022-10-13T04:53:45.481Z,92.61
2022-10-13T04:56:48.238Z,92.66
2022-10-13T04:59:51.420Z,92.73
2022-10-13T05:02:54.113Z,92.48
2022-10-13T05:05:58.562Z,92.76
2022-10-13T05:09:01.739Z,92.44
2022-10-13T05:12:04.948Z,92.50
2022-10-13T05:15:08.869Z,92.48
2022-10-13T05:18:11.658Z,92.76
2022-10-13T05:21:18.275Z,92.65
2022-10-13T05:24:30.873Z,92.99
2022-10-13T05:27:33.712Z,93.10
2022-10-13T05:30:36.794Z,92.89
2022-10-13T05:33:42.349Z,92.64
2022-10-13T05:36:46.532Z,92.94
2022-10-13T05:39:49.683Z,92.97
2022-10-13T05:42:53.606Z,92.87
2022-10-13T05:45:56.949Z,92.98
2022-10-13T05:48:59.979Z,92.88
2022-10-13T05:52:10.062Z,92.85
2022-10-13T05:55:17.383Z,93.04
2022-10-13T05:58:20.504Z,93.50
2022-10-13T06:01:27.343Z,93.18
2022-10-13T06:04:35.318Z,93.46
2022-10-13T06:07:39.434Z,93.07
2022-10-13T06:10:42.834Z,93.48
2022-10-13T06:13:45.984Z,93.12
2022-10-13T06:16:48.674Z,93.31
2022-10-13T06:19:51.725Z,93.02
2022-10-13T06:22:56.724Z,93.39
2022-10-13T06:26:00.086Z,92.92
2022-10-13T06:29:03.391Z,92.80
2022-10-13T06:32:07.104Z,92.73
2022-10-13T06:35:11.088Z,93.02
2022-10-13T06:38:15.270Z,92.97
2022-10-13T06:41:19.018Z,92.89
2022-10-13T06:44:22.083Z,92.86
2022-10-13T06:47:24.830Z,93.14
2022-10-13T06:50:28.086Z,92.91
2022-10-13T06:53:32.739Z,92.84
2022-10-13T06:56:35.806Z,92.93
2022-10-13T06:59:38.999Z,92.43
2022-10-13T07:02:42.218Z,92.02
2022-10-13T07:05:45.364Z,91.74
2022-10-13T07:08:49.852Z,91.94
2022-10-13T07:11:52.916Z,92.21
2022-10-13T07:14:56.088Z,91.74
2022-10-13T07:17:59.169Z,91.95
2022-10-13T07:21:02.381Z,92.27
2022-10-13T07:24:08.238Z,93.01
2022-10-13T07:27:10.937Z,93.92
2022-10-13T07:30:14.623Z,95.05
2022-10-13T07:33:17.330Z,95.31
2022-10-13T07:36:21.033Z,95.58
2022-10-13T07:39:26.085Z,95.59
2022-10-13T07:42:29.394Z,95.85
2022-10-13T07:45:32.189Z,96.22
2022-10-13T07:48:36.503Z,95.30
2022-10-13T07:51:39.236Z,95.39
2022-10-13T07:54:44.092Z,95.38
2022-10-13T07:57:46.834Z,95.08
2022-10-13T08:00:57.553Z,95.07
2022-10-13T08:04:00.973Z,93.98
2022-10-13T08:07:05.166Z,93.60
2022-10-13T08:10:10.606Z,93.26
2022-10-13T08:13:14.068Z,93.16
2022-10-13T08:16:16.997Z,93.37
2022-10-13T08:19:22.341Z,92.19
2022-10-13T08:22:28.194Z,92.75
2022-10-13T08:25:38.421Z,92.95
2022-10-13T08:28:48.617Z,93.63
2022-10-13T08:32:00.931Z,94.09
2022-10-13T08:35:04.360Z,94.45
2022-10-13T08:38:08.085Z,94.74
2022-10-13T08:41:19.123Z,93.70
2022-10-13T08:47:53.801Z,93.40
2022-10-13T08:51:01.931Z,93.51
2022-10-13T08:54:06.561Z,92.34
2022-10-13T08:57:12.120Z,91.79
2022-10-13T09:00:15.888Z,92.51
2022-10-13T09:03:25.788Z,91.74
2022-10-13T09:06:33.573Z,91.32
2022-10-13T09:09:37.203Z,90.79
2022-10-13T09:12:42.322Z,90.16
2022-10-13T09:15:45.792Z,91.04
2022-10-13T09:18:48.813Z,90.38
2022-10-13T09:21:54.051Z,90.20
2022-10-13T09:25:10.406Z,89.94
2022-10-13T09:28:20.718Z,89.25
2022-10-13T09:31:26.385Z,89.17
2022-10-13T09:34:30.486Z,89.12
2022-10-13T09:37:35.085Z,88.46
2022-10-13T09:40:41.014Z,88.39
2022-10-13T09:44:00.602Z,87.92
2022-10-13T09:47:05.107Z,88.73
2022-10-13T09:50:18.579Z,88.24
2022-10-13T09:53:26.507Z,88.19
2022-10-13T09:56:35.983Z,88.67
2022-10-13T09:59:44.493Z,88.98
2022-10-13T10:02:53.794Z,89.62
2022-10-13T10:05:58.815Z,90.23
2022-10-13T10:09:06.798Z,90.48
2022-10-13T10:12:16.967Z,89.90
2022-10-13T10:15:25.422Z,89.59
2022-10-13T10:18:37.971Z,89.81
2022-10-13T10:21:47.212Z,89.74
2022-10-13T10:24:55.181Z,89.67
2022-10-13T10:28:18.179Z,89.60
2022-10-13T10:31:36.922Z,89.97
2022-10-13T10:34:48.123Z,89.83
2022-10-13T10:38:06.030Z,89.81
2022-10-13T10:41:17.778Z,89.23
2022-10-13T10:44:22.929Z,89.52
2022-10-13T10:47:31.180Z,89.63
2022-10-13T10:50:36.159Z,89.72
2022-10-13T10:53:57.451Z,89.94
2022-10-13T10:57:07.644Z,89.57
2022-10-13T11:00:15.151Z,89.43
2022-10-13T11:03:29.685Z,89.99
2022-10-13T11:06:35.718Z,90.23
2022-10-13T11:10:05.431Z,90.10
2022-10-13T11:13:20.146Z,90.75
2022-10-13T11:16:31.103Z,90.98
2022-10-13T11:19:36.784Z,91.22
2022-10-13T11:22:39.436Z,91.49
2022-10-13T11:25:44.533Z,91.65
2022-10-13T11:28:48.994Z,90.91
2022-10-13T11:31:54.799Z,90.85
2022-10-13T11:35:02.102Z,90.42
2022-10-13T11:38:22.268Z,91.11
2022-10-13T11:41:30.232Z,91.71
2022-10-13T11:44:37.651Z,92.31
2022-10-13T11:51:26.056Z,94.17
2022-10-13T11:54:34.963Z,94.42
2022-10-13T11:57:37.901Z,94.53
2022-10-13T12:00:54.965Z,94.89
2022-10-13T12:03:58.588Z,95.43
2022-10-13T12:07:05.158Z,96.30
2022-10-13T12:10:17.166Z,96.69
2022-10-13T12:13:22.985Z,96.85
2022-10-13T12:16:25.981Z,96.63
2022-10-13T12:19:31.715Z,96.84
2022-10-13T12:22:40.194Z,97.40
2022-10-13T12:25:49.408Z,97.73
2022-10-13T12:28:55.838Z,98.14
2022-10-13T12:31:59.870Z,97.45
2022-10-13T12:35:17.146Z,97.51
2022-10-13T12:38:24.255Z,97.24
2022-10-13T12:41:30.201Z,96.59
2022-10-13T12:44:33.788Z,97.32
2022-10-13T12:47:39.019Z,97.31
2022-10-13T12:50:42.129Z,97.29
2022-10-13T12:53:47.880Z,97.14
2022-10-13T12:56:56.127Z,96.63
2022-10-13T12:59:59.666Z,97.01
2022-10-13T13:03:04.933Z,97.31
2022-10-13T13:06:23.148Z,97.05
2022-10-13T13:09:29.018Z,96.31
2022-10-13T13:12:32.332Z,95.54
2022-10-13T13:15:37.657Z,96.66
2022-10-13T13:18:42.558Z,96.55
2022-10-13T13:21:45.593Z,97.45
2022-10-13T13:24:51.108Z,97.10
2022-10-13T13:27:54.544Z,97.43
2022-10-13T13:30:57.595Z,97.79
2022-10-13T13:34:00.650Z,98.22
2022-10-13T13:37:03.925Z,97.66
2022-10-13T13:40:17.153Z,97.71
2022-10-13T13:43:20.059Z,97.36
2022-10-13T13:46:25.755Z,96.55
2022-10-13T13:49:28.844Z,97.18
2022-10-13T13:52:31.935Z,97.88
2022-10-13T13:55:36.458Z,98.01
2022-10-13T13:58:39.159Z,98.05
2022-10-13T14:01:42.391Z,98.58
2022-10-13T14:04:46.018Z,98.56
2022-10-13T14:07:48.804Z,98.13
2022-10-13T14:10:52.940Z,97.96
2022-10-13T14:13:58.003Z,97.29
2022-10-13T14:17:01.851Z,97.19
2022-10-13T14:20:05.345Z,97.57
2022-10-13T14:23:08.007Z,97.25
2022-10-13T14:26:12.154Z,96.91
2022-10-13T14:29:15.245Z,96.49
2022-10-13T14:32:18.151Z,96.84
2022-10-13T14:35:21.450Z,96.03
2022-10-13T14:38:24.241Z,95.76
2022-10-13T14:41:28.438Z,96.15
2022-10-13T14:44:31.307Z,95.88
2022-10-13T14:47:34.063Z,95.30
2022-10-13T14:50:38.681Z,96.45
2022-10-13T14:53:43.042Z,96.45
2022-10-13T14:56:47.121Z,96.92
2022-10-13T14:59:49.908Z,97.26
2022-10-13T15:02:52.656Z,97.30
2022-10-13T15:05:55.614Z,97.54
2022-10-13T15:08:58.824Z,97.73
2022-10-13T15:12:03.344Z,98.34
2022-10-13T15:15:06.887Z,98.99
2022-10-13T15:18:09.830Z,99.17
2022-10-13T15:21:12.717Z,99.46
2022-10-13T15:24:15.888Z,99.70
2022-10-13T15:27:20.092Z,100.00
2022-10-13T15:30:22.813Z,99.63
2022-10-13T15:33:25.569Z,99.68
2022-10-13T15:36:28.855Z,100.00
2022-10-13T15:39:32.304Z,100.00
2022-10-13T15:42:36.402Z,100.00
2022-10-13T15:45:39.633Z,100.00
2022-10-13T15:48:42.747Z,100.00
2022-10-13T15:51:46.400Z,100.00
2022-10-13T15:54:51.356Z,100.00
2022-10-13T15:57:55.729Z,99.84
2022-10-13T16:00:58.531Z,100.00
2022-10-13T16:04:02.534Z,100.00
2022-10-13T16:07:05.518Z,100.00
2022-10-13T16:10:09.472Z,100.00
2022-10-13T16:13:16.298Z,100.00
2022-10-13T16:16:19.776Z,100.00
2022-10-13T16:19:23.279Z,100.00
2022-10-13T16:22:26.007Z,100.00
2022-10-13T16:25:29.376Z,100.00
2022-10-13T16:28:33.603Z,100.00
2022-10-13T16:31:36.443Z,100.00
2022-10-13T16:34:39.237Z,100.00
2022-10-13T16:37:41.987Z,100.00
2022-10-13T16:40:44.691Z,100.00
2022-10-13T16:43:49.195Z,100.00
2022-10-13T16:46:53.869Z,100.00
2022-10-13T16:49:56.645Z,100.00
2022-10-13T16:52:59.661Z,100.00
2022-10-13T16:56:02.996Z,100.00
2022-10-13T16:59:08.317Z,100.00
2022-10-13T17:02:15.264Z,100.00
2022-10-13T17:05:18.073Z,100.00
2022-10-13T17:08:20.837Z,100.00
2022-10-13T17:11:26.542Z,100.00
2022-10-13T17:14:30.636Z,100.00
2022-10-13T17:17:33.470Z,100.00
2022-10-13T17:20:36.156Z,100.00
2022-10-13T17:23:38.997Z,100.00
2022-10-13T17:26:41.882Z,100.00
2022-10-13T17:29:46.443Z,100.00
2022-10-13T17:32:49.797Z,100.00
2022-10-13T17:35:52.786Z,100.00
2022-10-13T17:38:57.423Z,100.00
2022-10-13T17:42:00.256Z,100.00
2022-10-13T17:45:05.726Z,100.00
2022-10-13T17:48:08.606Z,100.00
2022-10-13T17:51:13.606Z,100.00
2022-10-13T17:54:16.876Z,100.00
2022-10-13T17:57:19.878Z,100.00
2022-10-13T18:00:24.086Z,100.00
2022-10-13T18:03:26.776Z,100.00
2022-10-13T18:06:35.220Z,100.00
2022-10-13T18:09:41.067Z,100.00
2022-10-13T18:12:44.513Z,100.00
2022-10-13T18:15:48.607Z,100.00
2022-10-13T18:18:52.933Z,100.00
2022-10-13T18:21:55.667Z,100.00
2022-10-13T18:24:58.646Z,100.00
2022-10-13T18:28:01.340Z,100.00
2022-10-13T18:31:07.084Z,100.00
2022-10-13T18:34:12.775Z,100.00
2022-10-13T18:37:15.551Z,100.00
2022-10-13T18:40:18.441Z,100.00
2022-10-13T18:43:21.358Z,100.00
2022-10-13T18:46:26.333Z,100.00
2022-10-13T18:49:32.010Z,100.00
2022-10-13T18:52:34.774Z,100.00
2022-10-13T18:55:41.039Z,100.00
2022-10-13T18:58:43.909Z,100.00
2022-10-13T19:01:48.695Z,100.00
2022-10-13T19:04:51.829Z,100.00
2022-10-13T19:07:54.573Z,100.00
2022-10-13T19:10:57.945Z,100.00
2022-10-13T19:14:01.856Z,100.00
2022-10-13T19:17:05.931Z,100.00
2022-10-13T19:20:09.606Z,100.00
2022-10-13T19:23:16.742Z,100.00
2022-10-13T19:26:23.675Z,100.00
2022-10-13T19:29:26.351Z,100.00
2022-10-13T19:32:30.410Z,100.00
2022-10-13T19:35:33.497Z,100.00
2022-10-13T19:38:36.386Z,100.00
2022-10-13T19:41:39.444Z,100.00
2022-10-13T19:44:42.376Z,100.00
2022-10-13T19:47:46.411Z,100.00
2022-10-13T19:50:49.321Z,100.00
2022-10-13T19:53:52.118Z,100.00
2022-10-13T19:56:55.146Z,100.00
2022-10-13T19:59:58.213Z,100.00
2022-10-13T20:03:02.870Z,100.00
2022-10-13T20:06:06.869Z,100.00
2022-10-13T20:09:09.569Z,100.00
2022-10-13T20:12:12.358Z,100.00
2022-10-13T20:15:15.040Z,100.00
2022-10-13T20:18:19.180Z,100.00
2022-10-13T20:21:22.719Z,100.00
2022-10-13T20:24:25.681Z,100.00
2022-10-13T20:27:28.430Z,100.00
2022-10-13T20:30:31.378Z,100.00
2022-10-13T20:33:35.768Z,100.00
2022-10-13T20:36:40.052Z,100.00
2022-10-13T20:39:42.979Z,100.00
2022-10-13T20:42:50.806Z,100.00
2022-10-13T20:46:00.627Z,100.00
2022-10-13T20:49:10.833Z,100.00
2022-10-13T20:52:14.428Z,100.00
2022-10-13T20:55:17.775Z,100.00
2022-10-13T20:58:20.603Z,100.00
2022-10-13T21:01:24.849Z,100.00
2022-10-13T21:04:29.189Z,100.00
2022-10-13T21:07:31.878Z,100.00
2022-10-13T21:10:36.998Z,100.00
2022-10-13T21:13:41.376Z,100.00
2022-10-13T21:16:44.154Z,100.00
2022-10-13T21:19:48.437Z,100.00
2022-10-13T21:22:51.124Z,100.00
2022-10-13T21:25:53.868Z,100.00
2022-10-13T21:28:57.320Z,100.00
2022-10-13T21:32:00.279Z,100.00
2022-10-13T21:35:04.888Z,100.00
2022-10-13T21:38:07.930Z,100.00
2022-10-13T21:41:13.225Z,100.00
2022-10-13T21:44:16.042Z,100.00
2022-10-13T21:47:19.020Z,100.00
2022-10-13T21:50:23.491Z,100.00
2022-10-13T21:53:26.182Z,100.00
2022-10-13T21:56:29.766Z,100.00
2022-10-13T21:59:32.776Z,100.00
2022-10-13T22:02:36.611Z,100.00
2022-10-13T22:05:40.703Z,100.00
2022-10-13T22:08:45.184Z,100.00
2022-10-13T22:11:50.060Z,100.00
2022-10-13T22:14:55.868Z,100.00
2022-10-13T22:17:58.988Z,100.00
2022-10-13T22:21:04.855Z,100.00
2022-10-13T22:24:10.375Z,100.00
2022-10-13T22:27:13.104Z,100.00
2022-10-13T22:30:16.057Z,100.00
2022-10-13T22:33:19.393Z,100.00
2022-10-13T22:36:26.015Z,100.00
2022-10-13T22:39:28.982Z,100.00
2022-10-13T22:42:31.688Z,100.00
2022-10-13T22:45:34.415Z,100.00
2022-10-13T22:48:40.571Z,100.00
2022-10-13T22:51:45.420Z,100.00
2022-10-13T22:54:48.107Z,100.00
2022-10-13T22:57:51.024Z,100.00
2022-10-13T23:00:54.152Z,100.00
2022-10-13T23:03:59.000Z,100.00
2022-10-13T23:07:03.138Z,100.00
2022-10-13T23:10:06.876Z,100.00
2022-10-13T23:13:09.578Z,100.00
2022-10-13T23:16:15.581Z,100.00
2022-10-13T23:19:19.494Z,100.00
2022-10-13T23:22:23.901Z,100.00
2022-10-13T23:25:26.626Z,100.00
2022-10-13T23:28:29.685Z,100.00
2022-10-13T23:31:32.783Z,100.00
2022-10-13T23:34:35.478Z,100.00
2022-10-13T23:37:39.856Z,100.00
2022-10-13T23:40:42.871Z,100.00
2022-10-13T23:43:45.823Z,100.00
2022-10-13T23:46:48.858Z,100.00
2022-10-13T23:49:51.738Z,100.00
2022-10-13T23:52:57.061Z,100.00
2022-10-13T23:56:02.168Z,100.00
2022-10-13T23:59:06.036Z,100.00
